createdAt,value
2018-08-09T00:01:57.999Z,22.28
2018-08-09T00:04:31.169Z,21.89
2018-08-09T00:07:03.017Z,22.00
2018-08-09T00:09:38.014Z,22.12
2018-08-09T00:12:11.194Z,22.12
2018-08-09T00:14:42.466Z,22.02
2018-08-09T00:17:13.873Z,21.82
2018-08-09T00:19:49.427Z,21.74
2018-08-09T00:22:23.300Z,21.77
2018-08-09T00:24:58.772Z,21.80
2018-08-09T00:27:29.826Z,21.68
2018-08-09T00:30:03.640Z,21.55
2018-08-09T00:32:37.841Z,21.32
2018-08-09T00:35:13.238Z,21.24
2018-08-09T00:37:44.973Z,21.31
2018-08-09T00:40:17.753Z,21.25
2018-08-09T00:42:54.166Z,21.18
2018-08-09T00:45:31.546Z,21.15
2018-08-09T00:48:04.935Z,21.11
2018-08-09T00:53:18.472Z,21.30
2018-08-09T00:55:48.829Z,21.21
2018-08-09T00:58:21.085Z,21.24
2018-08-09T01:00:52.973Z,21.21
2018-08-09T01:03:28.654Z,21.05
2018-08-09T01:06:01.430Z,20.84
2018-08-09T01:08:38.365Z,20.62
2018-08-09T01:11:12.431Z,20.69
2018-08-09T01:13:44.422Z,20.60
2018-08-09T01:16:16.061Z,20.60
2018-08-09T01:18:48.738Z,20.80
2018-08-09T01:21:25.424Z,20.64
2018-08-09T01:23:59.652Z,20.56
2018-08-09T01:26:31.834Z,20.51
2018-08-09T01:29:12.254Z,20.53
2018-08-09T01:31:44.271Z,20.57
2018-08-09T01:34:22.007Z,20.53
2018-08-09T01:36:54.586Z,20.59
2018-08-09T01:39:25.030Z,20.52
2018-08-09T01:42:24.940Z,20.49
2018-08-09T01:44:58.407Z,20.57
2018-08-09T01:47:38.314Z,20.64
2018-08-09T01:50:13.145Z,20.66
2018-08-09T01:52:44.275Z,20.88
2018-08-09T01:55:19.742Z,20.97
2018-08-09T01:57:50.181Z,21.02
2018-08-09T02:00:25.388Z,21.17
2018-08-09T02:03:15.170Z,21.29
2018-08-09T02:05:49.385Z,21.33
2018-08-09T02:08:22.773Z,21.52
2018-08-09T02:10:58.728Z,21.52
2018-08-09T02:13:32.640Z,21.50
2018-08-09T02:16:06.816Z,21.42
2018-08-09T02:18:41.866Z,21.62
2018-08-09T02:21:17.248Z,21.72
2018-08-09T02:23:48.620Z,21.92
2018-08-09T02:26:20.138Z,21.68
2018-08-09T02:28:58.699Z,22.06
2018-08-09T02:34:09.859Z,22.29
2018-08-09T02:36:53.006Z,22.27
2018-08-09T02:39:27.466Z,22.25
2018-08-09T02:41:58.017Z,22.18
2018-08-09T02:44:30.457Z,22.09
2018-08-09T02:47:03.687Z,22.05
2018-08-09T02:49:46.149Z,22.07
2018-08-09T02:52:18.289Z,22.00
2018-08-09T02:54:50.563Z,21.91
2018-08-09T02:57:36.551Z,21.75
2018-08-09T03:00:10.808Z,21.63
2018-08-09T03:02:43.440Z,21.55
2018-08-09T03:05:16.804Z,21.49
2018-08-09T03:07:52.864Z,21.51
2018-08-09T03:10:25.067Z,21.44
2018-08-09T03:13:00.908Z,21.31
2018-08-09T03:15:32.907Z,21.29
2018-08-09T03:18:07.273Z,21.35
2018-08-09T03:20:37.468Z,21.34
2018-08-09T03:23:08.028Z,21.37
2018-08-09T03:25:42.985Z,21.32
2018-08-09T03:28:16.195Z,21.42
2018-08-09T03:30:48.015Z,21.45
2018-08-09T03:33:20.071Z,21.46
2018-08-09T03:35:58.462Z,21.43
2018-08-09T03:38:29.765Z,21.38
2018-08-09T03:41:09.977Z,21.52
2018-08-09T03:43:42.471Z,21.51
2018-08-09T03:46:17.209Z,21.58
2018-08-09T03:48:52.645Z,21.68
2018-08-09T03:51:34.523Z,21.66
2018-08-09T03:54:06.988Z,21.71
2018-08-09T03:56:39.171Z,21.77
2018-08-09T03:59:12.322Z,21.86
2018-08-09T04:01:52.712Z,21.93
2018-08-09T04:04:29.696Z,22.04
2018-08-09T04:07:00.127Z,22.14
2018-08-09T04:09:33.581Z,22.25
2018-08-09T04:12:11.525Z,21.78
2018-08-09T04:14:47.003Z,22.50
2018-08-09T04:17:23.514Z,22.60
2018-08-09T04:19:55.669Z,22.48
2018-08-09T04:22:28.907Z,22.55
2018-08-09T04:25:02.691Z,22.78
2018-08-09T04:27:38.460Z,22.93
2018-08-09T04:30:22.886Z,23.03
2018-08-09T04:32:55.537Z,22.95
2018-08-09T04:35:28.916Z,22.97
2018-08-09T04:38:01.733Z,23.15
2018-08-09T04:40:34.134Z,23.19
2018-08-09T04:43:10.419Z,23.24
2018-08-09T04:45:41.208Z,23.35
2018-08-09T04:48:12.020Z,23.38
2018-08-09T04:50:43.643Z,23.39
2018-08-09T04:53:16.447Z,23.48
2018-08-09T04:55:47.983Z,23.53
2018-08-09T04:58:18.192Z,23.71
2018-08-09T05:00:48.572Z,23.66
2018-08-09T05:03:19.209Z,23.79
2018-08-09T05:05:51.065Z,23.89
2018-08-09T05:08:22.266Z,24.07
2018-08-09T05:10:52.612Z,24.16
2018-08-09T05:13:23.278Z,24.22
2018-08-09T05:15:57.619Z,24.38
2018-08-09T05:18:26.962Z,24.48
2018-08-09T05:21:01.290Z,24.63
2018-08-09T05:23:36.555Z,24.68
2018-08-09T05:26:09.858Z,24.67
2018-08-09T05:28:43.614Z,24.77
2018-08-09T05:31:21.349Z,24.90
2018-08-09T05:33:55.127Z,25.04
2018-08-09T05:36:27.087Z,25.06
2018-08-09T05:39:06.903Z,25.19
2018-08-09T05:41:37.934Z,25.27
2018-08-09T05:44:11.443Z,25.39
2018-08-09T05:46:46.943Z,25.51
2018-08-09T05:49:27.820Z,25.65
2018-08-09T05:51:59.750Z,25.68
2018-08-09T05:54:33.514Z,25.77
2018-08-09T05:57:07.617Z,25.86
2018-08-09T05:59:45.221Z,26.11
2018-08-09T06:02:16.991Z,26.16
2018-08-09T06:04:49.160Z,26.32
2018-08-09T06:07:23.765Z,26.36
2018-08-09T06:09:59.841Z,26.48
2018-08-09T06:12:31.117Z,26.69
2018-08-09T06:15:08.983Z,26.85
2018-08-09T06:17:39.709Z,26.06
2018-08-09T06:20:12.160Z,26.82
2018-08-09T06:22:43.364Z,26.96
2018-08-09T06:25:15.297Z,27.09
2018-08-09T06:27:46.731Z,27.07
2018-08-09T06:30:17.390Z,26.94
2018-08-09T06:32:50.978Z,26.37
2018-08-09T06:35:21.445Z,27.00
2018-08-09T06:37:52.808Z,26.96
2018-08-09T06:40:27.893Z,27.01
2018-08-09T06:43:02.239Z,27.13
2018-08-09T06:45:35.915Z,27.07
2018-08-09T06:48:07.876Z,27.16
2018-08-09T06:50:38.920Z,27.29
2018-08-09T06:53:14.013Z,27.43
2018-08-09T06:55:49.016Z,27.56
2018-08-09T06:58:20.325Z,27.35
2018-08-09T07:00:51.244Z,27.51
2018-08-09T07:03:28.308Z,27.68
2018-08-09T07:05:59.234Z,27.61
2018-08-09T07:08:32.439Z,27.42
2018-08-09T07:11:12.397Z,27.59
2018-08-09T07:13:52.696Z,27.48
2018-08-09T07:16:25.661Z,27.50
2018-08-09T07:18:58.280Z,27.73
2018-08-09T07:21:31.572Z,27.73
2018-08-09T07:24:06.639Z,27.98
2018-08-09T07:26:42.837Z,27.92
2018-08-09T07:29:21.113Z,27.86
2018-08-09T07:31:53.913Z,27.92
2018-08-09T07:34:26.141Z,27.93
2018-08-09T07:36:58.462Z,28.06
2018-08-09T07:39:30.956Z,28.21
2018-08-09T07:42:03.015Z,28.20
2018-08-09T07:44:35.756Z,28.18
2018-08-09T07:47:18.129Z,28.17
2018-08-09T07:49:54.058Z,28.29
2018-08-09T07:52:25.872Z,28.58
2018-08-09T07:54:56.734Z,28.83
2018-08-09T07:57:33.699Z,28.86
2018-08-09T08:00:04.315Z,29.00
2018-08-09T08:02:38.283Z,28.92
2018-08-09T08:05:09.365Z,28.60
2018-08-09T08:07:46.313Z,28.44
2018-08-09T08:10:16.625Z,28.54
2018-08-09T08:12:48.709Z,28.44
2018-08-09T08:15:26.814Z,28.70
2018-08-09T08:17:57.363Z,28.74
2018-08-09T08:20:29.183Z,28.98
2018-08-09T08:23:02.784Z,28.56
2018-08-09T08:25:37.556Z,28.71
2018-08-09T08:28:12.318Z,28.99
2018-08-09T08:30:44.328Z,29.19
2018-08-09T08:33:18.941Z,29.46
2018-08-09T08:35:51.065Z,29.55
2018-08-09T08:38:24.435Z,29.58
2018-08-09T08:41:02.890Z,29.46
2018-08-09T08:43:33.159Z,29.00
2018-08-09T08:46:04.159Z,28.92
2018-08-09T08:48:35.025Z,29.10
2018-08-09T08:51:10.352Z,29.27
2018-08-09T08:53:42.117Z,29.18
2018-08-09T08:56:15.906Z,29.21
2018-08-09T08:58:51.529Z,29.12
2018-08-09T09:01:25.042Z,29.14
2018-08-09T09:03:57.702Z,29.03
2018-08-09T09:06:28.720Z,28.82
2018-08-09T09:09:02.880Z,29.15
2018-08-09T09:14:52.826Z,29.41
2018-08-09T09:17:25.081Z,29.61
2018-08-09T09:19:55.206Z,29.73
2018-08-09T09:22:29.739Z,29.77
2018-08-09T09:25:01.807Z,29.67
2018-08-09T09:27:38.740Z,29.55
2018-08-09T09:30:17.386Z,29.63
2018-08-09T09:32:47.261Z,29.49
2018-08-09T09:35:20.829Z,29.83
2018-08-09T09:37:52.063Z,29.76
2018-08-09T09:40:26.013Z,29.82
2018-08-09T09:43:00.630Z,30.01
2018-08-09T09:45:31.881Z,30.50
2018-08-09T09:48:03.910Z,30.28
2018-08-09T09:50:33.592Z,30.30
2018-08-09T09:53:11.681Z,30.16
2018-08-09T09:55:43.354Z,30.29
2018-08-09T09:58:15.765Z,30.02
2018-08-09T10:00:50.849Z,30.17
2018-08-09T10:03:23.036Z,30.46
2018-08-09T10:05:56.109Z,30.59
2018-08-09T10:08:26.492Z,30.57
2018-08-09T10:10:59.381Z,30.58
2018-08-09T10:13:32.845Z,30.35
2018-08-09T10:16:04.555Z,30.07
2018-08-09T10:18:35.249Z,30.10
2018-08-09T10:21:06.726Z,30.32
2018-08-09T10:23:38.356Z,30.34
2018-08-09T10:26:12.229Z,30.42
2018-08-09T10:28:45.250Z,30.16
2018-08-09T10:31:18.483Z,29.98
2018-08-09T10:33:55.332Z,30.07
2018-08-09T10:36:36.339Z,30.32
2018-08-09T10:39:12.905Z,30.16
2018-08-09T10:41:44.211Z,30.31
2018-08-09T10:44:22.191Z,30.25
2018-08-09T10:46:53.288Z,30.32
2018-08-09T10:49:26.866Z,29.89
2018-08-09T10:51:59.432Z,29.99
2018-08-09T10:54:34.992Z,30.01
2018-08-09T10:57:10.781Z,30.46
2018-08-09T10:59:44.517Z,30.32
2018-08-09T11:02:17.542Z,30.43
2018-08-09T11:04:49.179Z,30.34
2018-08-09T11:07:25.064Z,30.50
2018-08-09T11:10:06.234Z,30.64
2018-08-09T11:12:41.879Z,30.54
2018-08-09T11:15:17.623Z,30.65
2018-08-09T11:17:53.584Z,30.70
2018-08-09T11:20:23.089Z,30.47
2018-08-09T11:22:56.299Z,30.61
2018-08-09T11:25:29.851Z,30.59
2018-08-09T11:28:01.863Z,30.38
2018-08-09T11:30:40.192Z,30.38
2018-08-09T11:33:16.005Z,30.20
2018-08-09T11:35:46.487Z,30.06
2018-08-09T11:38:17.299Z,30.08
2018-08-09T11:40:51.107Z,30.36
2018-08-09T11:43:22.220Z,30.37
2018-08-09T11:45:52.474Z,30.43
2018-08-09T11:48:24.353Z,30.25
2018-08-09T11:50:54.564Z,30.35
2018-08-09T11:53:27.097Z,30.26
2018-08-09T11:55:57.958Z,30.31
2018-08-09T11:58:32.195Z,30.13
2018-08-09T12:01:03.826Z,29.24
2018-08-09T12:03:34.962Z,29.29
2018-08-09T12:06:06.120Z,30.03
2018-08-09T12:08:36.725Z,30.10
2018-08-09T12:11:12.116Z,30.02
2018-08-09T12:13:44.153Z,30.03
2018-08-09T12:16:16.755Z,29.87
2018-08-09T12:18:47.629Z,30.08
2018-08-09T12:21:19.097Z,29.82
2018-08-09T12:23:56.541Z,29.88
2018-08-09T12:26:35.075Z,30.20
2018-08-09T12:29:16.725Z,30.54
2018-08-09T12:31:49.361Z,31.01
2018-08-09T12:34:21.015Z,31.51
2018-08-09T12:36:50.586Z,31.83
2018-08-09T12:39:23.092Z,32.49
2018-08-09T12:41:57.751Z,32.51
2018-08-09T12:44:30.187Z,32.88
2018-08-09T12:47:06.907Z,32.94
2018-08-09T12:49:42.494Z,32.90
2018-08-09T12:52:18.012Z,32.89
2018-08-09T12:54:56.438Z,32.58
2018-08-09T12:57:27.091Z,33.43
2018-08-09T13:00:04.092Z,33.37
2018-08-09T13:02:37.130Z,33.05
2018-08-09T13:05:11.715Z,33.23
2018-08-09T13:07:44.150Z,33.00
2018-08-09T13:10:17.853Z,33.27
2018-08-09T13:12:51.081Z,32.91
2018-08-09T13:15:28.152Z,33.81
2018-08-09T13:17:59.760Z,33.17
2018-08-09T13:20:30.433Z,32.68
2018-08-09T13:23:00.068Z,33.08
2018-08-09T13:25:32.010Z,33.38
2018-08-09T13:28:04.568Z,33.33
2018-08-09T13:30:37.753Z,33.54
2018-08-09T13:33:09.600Z,33.29
2018-08-09T13:35:43.450Z,32.72
2018-08-09T13:38:15.114Z,33.15
2018-08-09T13:40:46.521Z,33.31
2018-08-09T13:43:18.569Z,33.54
2018-08-09T13:45:49.870Z,32.91
2018-08-09T13:48:22.681Z,33.28
2018-08-09T13:50:54.067Z,33.39
2018-08-09T13:53:28.054Z,32.89
2018-08-09T13:56:02.963Z,34.33
2018-08-09T13:58:37.208Z,34.01
2018-08-09T14:01:14.735Z,33.42
2018-08-09T14:03:45.854Z,33.68
2018-08-09T14:06:18.426Z,33.35
2018-08-09T14:08:49.716Z,33.24
2018-08-09T14:11:22.653Z,33.38
2018-08-09T14:13:58.126Z,33.03
2018-08-09T14:16:31.974Z,33.51
2018-08-09T14:19:05.024Z,33.51
2018-08-09T14:21:35.028Z,33.80
2018-08-09T14:24:07.959Z,33.93
2018-08-09T14:26:41.102Z,33.79
2018-08-09T14:29:13.239Z,34.07
2018-08-09T14:31:50.617Z,33.90
2018-08-09T14:34:23.351Z,33.19
2018-08-09T14:36:53.878Z,33.21
2018-08-09T14:39:23.463Z,33.96
2018-08-09T14:41:56.492Z,33.73
2018-08-09T14:44:27.182Z,33.71
2018-08-09T14:46:58.603Z,33.74
2018-08-09T14:49:28.891Z,33.40
2018-08-09T14:52:01.878Z,33.58
2018-08-09T14:54:34.530Z,34.16
2018-08-09T14:57:04.053Z,33.05
2018-08-09T14:59:35.509Z,33.05
2018-08-09T15:02:08.535Z,33.91
2018-08-09T15:04:39.866Z,33.22
2018-08-09T15:07:10.142Z,33.56
2018-08-09T15:09:41.617Z,33.53
2018-08-09T15:12:11.546Z,33.49
2018-08-09T15:14:46.552Z,32.76
2018-08-09T15:17:17.861Z,33.38
2018-08-09T15:19:49.933Z,33.02
2018-08-09T15:22:27.878Z,32.38
2018-08-09T15:25:01.246Z,32.47
2018-08-09T15:27:32.469Z,32.76
2018-08-09T15:30:04.047Z,33.06
2018-08-09T15:32:36.709Z,32.63
2018-08-09T15:35:11.227Z,32.96
2018-08-09T15:37:43.430Z,32.87
2018-08-09T15:40:16.497Z,32.36
2018-08-09T15:42:48.972Z,32.54
2018-08-09T15:45:22.069Z,32.69
2018-08-09T15:47:58.245Z,32.65
2018-08-09T15:50:31.304Z,32.94
2018-08-09T15:53:02.687Z,32.94
2018-08-09T15:55:34.922Z,32.71
2018-08-09T15:58:11.243Z,32.12
2018-08-09T16:00:45.081Z,31.78
2018-08-09T16:03:17.110Z,32.09
2018-08-09T16:05:47.596Z,31.45
2018-08-09T16:08:22.307Z,31.48
2018-08-09T16:10:51.803Z,31.89
2018-08-09T16:13:26.733Z,31.77
2018-08-09T16:16:04.465Z,31.94
2018-08-09T16:18:44.532Z,31.60
2018-08-09T16:21:20.341Z,31.64
2018-08-09T16:23:52.397Z,31.31
2018-08-09T16:26:24.415Z,30.95
2018-08-09T16:28:58.854Z,30.87
2018-08-09T16:31:34.184Z,30.67
2018-08-09T16:34:07.630Z,30.62
2018-08-09T16:36:41.944Z,30.47
2018-08-09T16:39:15.420Z,30.14
2018-08-09T16:41:46.874Z,30.18
2018-08-09T16:44:20.341Z,30.24
2018-08-09T16:46:51.022Z,29.62
2018-08-09T16:49:27.891Z,29.62
2018-08-09T16:51:57.762Z,29.20
2018-08-09T16:54:32.054Z,29.30
2018-08-09T16:57:07.121Z,28.76
2018-08-09T16:59:40.402Z,28.54
2018-08-09T17:02:10.715Z,27.73
2018-08-09T17:04:42.553Z,28.22
2018-08-09T17:07:19.719Z,28.02
2018-08-09T17:09:52.058Z,27.84
2018-08-09T17:12:23.064Z,27.70
2018-08-09T17:14:53.970Z,27.43
2018-08-09T17:17:27.408Z,27.32
2018-08-09T17:20:01.791Z,27.33
2018-08-09T17:22:35.409Z,27.21
2018-08-09T17:25:12.781Z,26.88
2018-08-09T17:27:48.076Z,26.88
2018-08-09T17:30:22.987Z,26.85
2018-08-09T17:32:55.526Z,26.72
2018-08-09T17:35:30.686Z,26.62
2018-08-09T17:38:03.239Z,26.62
2018-08-09T17:40:35.246Z,26.63
2018-08-09T17:43:06.156Z,26.59
2018-08-09T17:45:40.561Z,26.51
2018-08-09T17:48:13.536Z,26.47
2018-08-09T17:50:46.889Z,26.42
2018-08-09T17:53:20.155Z,26.43
2018-08-09T17:55:55.183Z,26.43
2018-08-09T17:58:27.156Z,26.36
2018-08-09T18:00:58.609Z,25.98
2018-08-09T18:03:32.252Z,26.33
2018-08-09T18:06:05.453Z,26.25
2018-08-09T18:08:38.763Z,26.28
2018-08-09T18:11:12.349Z,26.29
2018-08-09T18:13:43.669Z,26.23
2018-08-09T18:16:19.994Z,26.21
2018-08-09T18:18:53.721Z,26.18
2018-08-09T18:21:24.732Z,26.06
2018-08-09T18:23:56.564Z,25.96
2018-08-09T18:26:28.137Z,25.88
2018-08-09T18:28:58.429Z,25.86
2018-08-09T18:31:31.344Z,25.94
2018-08-09T18:34:02.795Z,25.84
2018-08-09T18:36:33.103Z,25.77
2018-08-09T18:41:43.442Z,25.64
2018-08-09T18:44:15.868Z,25.45
2018-08-09T18:46:46.851Z,25.42
2018-08-09T18:49:19.829Z,25.11
2018-08-09T18:51:56.824Z,24.94
2018-08-09T18:54:29.983Z,23.85
2018-08-09T18:57:02.518Z,24.21
2018-08-09T18:59:38.801Z,24.56
2018-08-09T19:02:08.938Z,24.48
2018-08-09T19:04:41.654Z,24.44
2018-08-09T19:07:14.604Z,24.39
2018-08-09T19:09:46.669Z,24.30
2018-08-09T19:12:23.065Z,24.32
2018-08-09T19:14:55.914Z,24.30
2018-08-09T19:17:26.370Z,24.11
2018-08-09T19:19:59.657Z,24.11
2018-08-09T19:22:29.939Z,24.09
2018-08-09T19:25:05.623Z,24.16
2018-08-09T19:27:39.441Z,23.90
2018-08-09T19:30:11.678Z,23.97
2018-08-09T19:32:44.296Z,23.94
2018-08-09T19:35:21.129Z,23.98
2018-08-09T19:37:52.291Z,23.98
2018-08-09T19:40:33.081Z,23.95
2018-08-09T19:43:03.135Z,23.99
2018-08-09T19:45:37.411Z,23.89
2018-08-09T19:48:06.968Z,23.86
2018-08-09T19:50:43.776Z,23.82
2018-08-09T19:53:15.285Z,23.87
2018-08-09T19:55:46.549Z,23.84
2018-08-09T19:58:16.982Z,23.83
2018-08-09T20:00:56.517Z,23.66
2018-08-09T20:03:26.222Z,23.69
2018-08-09T20:06:02.196Z,23.63
2018-08-09T20:08:31.629Z,23.37
2018-08-09T20:11:04.049Z,23.47
2018-08-09T20:13:40.120Z,23.41
2018-08-09T20:16:14.951Z,23.36
2018-08-09T20:18:49.626Z,23.29
2018-08-09T20:21:22.163Z,23.34
2018-08-09T20:23:55.934Z,23.23
2018-08-09T20:26:29.419Z,23.14
2018-08-09T20:29:04.495Z,23.17
2018-08-09T20:31:35.279Z,22.61
2018-08-09T20:34:07.879Z,22.88
2018-08-09T20:36:43.213Z,22.85
2018-08-09T20:39:18.568Z,22.27
2018-08-09T20:41:57.054Z,22.85
2018-08-09T20:44:26.638Z,22.81
2018-08-09T20:47:04.351Z,22.75
2018-08-09T20:49:35.775Z,22.70
2018-08-09T20:52:07.710Z,22.73
2018-08-09T20:54:40.214Z,22.62
2018-08-09T20:57:13.613Z,22.67
2018-08-09T20:59:48.207Z,22.62
2018-08-09T21:02:20.876Z,22.56
2018-08-09T21:04:55.097Z,21.96
2018-08-09T21:07:26.422Z,22.45
2018-08-09T21:09:59.166Z,22.55
2018-08-09T21:12:29.914Z,22.61
2018-08-09T21:15:02.544Z,22.62
2018-08-09T21:17:39.418Z,22.59
2018-08-09T21:20:14.966Z,22.51
2018-08-09T21:22:49.215Z,22.42
2018-08-09T21:25:20.808Z,22.37
2018-08-09T21:27:53.227Z,22.37
2018-08-09T21:30:34.093Z,22.40
2018-08-09T21:33:10.395Z,22.37
2018-08-09T21:35:40.993Z,22.49
2018-08-09T21:38:16.529Z,22.46
2018-08-09T21:40:51.137Z,22.42
2018-08-09T21:43:24.197Z,22.40
2018-08-09T21:45:56.613Z,22.38
2018-08-09T21:48:29.336Z,22.42
2018-08-09T21:51:01.603Z,22.37
2018-08-09T21:53:37.457Z,22.38
2018-08-09T21:56:10.436Z,22.47
2018-08-09T21:58:46.147Z,22.38
2018-08-09T22:01:17.750Z,22.38
2018-08-09T22:03:50.316Z,22.38
2018-08-09T22:06:25.972Z,22.35
2018-08-09T22:09:01.929Z,22.32
2018-08-09T22:11:38.473Z,22.20
2018-08-09T22:14:22.441Z,22.38
2018-08-09T22:17:02.050Z,22.37
2018-08-09T22:19:36.433Z,22.30
2018-08-09T22:22:15.218Z,22.27
2018-08-09T22:24:48.023Z,22.28
2018-08-09T22:27:22.623Z,22.21
2018-08-09T22:29:57.657Z,22.21
2018-08-09T22:32:29.196Z,22.13
2018-08-09T22:35:03.208Z,22.08
2018-08-09T22:37:34.568Z,22.04
2018-08-09T22:40:09.134Z,21.96
2018-08-09T22:42:41.724Z,21.49
2018-08-09T22:45:13.127Z,21.91
2018-08-09T22:47:44.860Z,21.88
2018-08-09T22:50:18.293Z,21.95
2018-08-09T22:52:54.043Z,21.90
2018-08-09T22:55:28.874Z,21.86
2018-08-09T22:58:02.547Z,21.83
2018-08-09T23:00:41.211Z,21.83
2018-08-09T23:03:16.203Z,21.81
2018-08-09T23:05:51.450Z,21.82
2018-08-09T23:08:23.390Z,21.76
2018-08-09T23:10:56.229Z,21.77
2018-08-09T23:13:31.308Z,21.75
2018-08-09T23:16:03.937Z,21.75
2018-08-09T23:18:34.603Z,21.77
2018-08-09T23:21:07.223Z,21.80
2018-08-09T23:23:39.537Z,21.76
2018-08-09T23:26:12.561Z,21.76
2018-08-09T23:28:43.630Z,21.70
2018-08-09T23:33:51.450Z,21.64
2018-08-09T23:36:25.902Z,21.65
2018-08-09T23:38:59.431Z,21.72
2018-08-09T23:41:32.150Z,21.74
2018-08-09T23:44:05.122Z,21.72
2018-08-09T23:46:37.767Z,21.69
2018-08-09T23:49:14.198Z,21.70
2018-08-09T23:51:51.415Z,21.69
2018-08-09T23:54:23.645Z,21.75
2018-08-09T23:56:58.526Z,21.73
2018-08-09T23:59:31.917Z,21.72
